Time;durP1;ratioP1;P1;durP2;ratioP2;P2;SDS_P1;SDS_P2;PMS_P1;PMS_P2;Temp;Humidity;BMP_temperature;BMP_pressure;BME280_temperature;BME280_humidity;BME280_pressure;Samples;Min_cycle;Max_cycle;Signal;HPM_P1;HPM_P2
2024/02/11 00:00:32;;;;;;;67.50;33.90;;;;;;;6.45;100.00;96968.27;272468;1272;23242;-89
2024/02/11 00:06:54;;;;;;;56.70;29.60;;;;;;;6.45;100.00;96956.85;272478;1272;22248;-89
2024/02/11 00:12:57;;;;;;;54.90;30.40;;;;;;;6.46;100.00;96958.55;272238;1273;22256;-87
2024/02/11 00:18:59;;;;;;;50.50;27.30;;;;;;;6.47;100.00;96960.48;272335;1272;22413;-89
2024/02/11 00:25:01;;;;;;;51.10;29.70;;;;;;;6.49;100.00;96955.04;272297;1272;22330;-90
2024/02/11 00:31:03;;;;;;;64.00;32.80;;;;;;;6.47;100.00;96947.06;272232;1272;23282;-89
2024/02/11 00:37:06;;;;;;;92.30;43.10;;;;;;;6.46;100.00;96943.71;272047;1273;23653;-89
2024/02/11 00:43:08;;;;;;;59.80;32.20;;;;;;;6.46;100.00;96937.58;271291;1272;22937;-88
2024/02/11 00:49:10;;;;;;;53.70;29.50;;;;;;;6.46;100.00;96932.21;272522;1272;22227;-88
2024/02/11 00:55:21;;;;;;;53.10;28.90;;;;;;;6.47;100.00;96932.38;272410;1272;23462;-88
2024/02/11 01:01:23;;;;;;;55.30;28.20;;;;;;;6.48;100.00;96930.97;271622;1273;22465;-88
2024/02/11 01:07:25;;;;;;;57.00;30.70;;;;;;;6.51;100.00;96929.71;272258;1272;22567;-88
2024/02/11 01:13:27;;;;;;;51.40;29.20;;;;;;;6.54;100.00;96929.06;272274;1272;22372;-89
2024/02/11 01:19:29;;;;;;;51.40;29.30;;;;;;;6.56;100.00;96930.45;272432;1273;23132;-88
2024/02/11 01:25:31;;;;;;;51.20;28.50;;;;;;;6.57;100.00;96932.23;272348;1273;22299;-88
2024/02/11 01:31:34;;;;;;;51.80;28.50;;;;;;;6.57;100.00;96927.73;272343;1273;22388;-87
2024/02/11 01:37:40;;;;;;;56.40;30.50;;;;;;;6.59;100.00;96919.95;272534;1272;22396;-88
2024/02/11 01:43:41;;;;;;;59.90;29.50;;;;;;;6.61;100.00;96913.41;272522;1273;22352;-87
2024/02/11 01:49:44;;;;;;;56.70;28.60;;;;;;;6.64;100.00;96908.95;272569;1272;22440;-88
2024/02/11 01:55:46;;;;;;;50.50;26.60;;;;;;;6.64;100.00;96907.17;271803;1272;22743;-87
2024/02/11 02:01:48;;;;;;;47.60;24.90;;;;;;;6.64;100.00;96904.15;271659;1272;22237;-88
2024/02/11 02:07:54;;;;;;;49.60;26.60;;;;;;;6.62;100.00;96901.67;271852;1272;22543;-88
2024/02/11 02:13:56;;;;;;;51.40;26.50;;;;;;;6.60;100.00;96896.73;271943;1272;22193;-88
2024/02/11 02:19:57;;;;;;;51.00;24.80;;;;;;;6.58;100.00;96890.91;272512;1272;23491;-88
2024/02/11 02:26:00;;;;;;;47.90;25.30;;;;;;;6.57;100.00;96888.58;272519;1272;22516;-89
2024/02/11 02:38:23;;;;;;;57.00;29.80;;;;;;;6.56;100.00;96878.50;271805;1275;22476;-86
2024/02/11 02:44:24;;;;;;;64.70;32.00;;;;;;;6.54;100.00;96879.36;272095;1274;22407;-87
2024/02/11 02:50:26;;;;;;;54.90;30.70;;;;;;;6.55;100.00;96871.50;272054;1275;22334;-87
2024/02/11 02:56:28;;;;;;;49.20;26.10;;;;;;;6.54;100.00;96870.34;272152;1275;22310;-87
2024/02/11 03:02:30;;;;;;;49.10;28.30;;;;;;;6.52;100.00;96872.31;271755;1275;23431;-87
2024/02/11 03:08:31;;;;;;;49.60;26.30;;;;;;;6.51;100.00;96867.49;271901;1274;23534;-88
2024/02/11 03:14:33;;;;;;;51.10;29.60;;;;;;;6.50;100.00;96864.64;271978;1275;22609;-87
2024/02/11 03:20:35;;;;;;;45.90;28.20;;;;;;;6.48;100.00;96857.20;272030;1274;22403;-87
2024/02/11 03:26:36;;;;;;;47.50;26.60;;;;;;;6.47;100.00;96856.59;272163;1274;22351;-87
2024/02/11 03:32:38;;;;;;;46.60;27.80;;;;;;;6.48;100.00;96855.64;270887;1275;22931;-86
2024/02/11 03:38:40;;;;;;;53.50;28.50;;;;;;;6.48;100.00;96855.17;271272;1275;22356;-87
2024/02/11 03:44:42;;;;;;;56.50;28.40;;;;;;;6.48;100.00;96849.35;272102;1274;22273;-87
2024/02/11 03:50:45;;;;;;;62.30;33.10;;;;;;;6.52;100.00;96853.44;272083;1274;23225;-85
2024/02/11 03:56:53;;;;;;;64.30;35.60;;;;;;;6.55;100.00;96853.11;272235;1276;22203;-86
2024/02/11 04:03:48;;;;;;;63.50;35.00;;;;;;;6.57;100.00;96842.77;272566;1283;22270;-85
2024/02/11 04:11:11;;;;;;;66.40;36.80;;;;;;;6.57;100.00;96832.66;272653;1279;22325;-87
2024/02/11 04:17:13;;;;;;;64.30;34.80;;;;;;;6.57;100.00;96823.65;271964;1275;22347;-87
2024/02/11 04:23:16;;;;;;;60.90;33.30;;;;;;;6.58;100.00;96816.05;270412;1275;22601;-87
2024/02/11 04:29:19;;;;;;;60.20;33.80;;;;;;;6.57;100.00;96811.31;269184;1274;23352;-86
2024/02/11 04:35:24;;;;;;;64.20;32.10;;;;;;;6.55;100.00;96810.48;269991;1274;22555;-87
2024/02/11 04:41:26;;;;;;;59.40;31.40;;;;;;;6.53;100.00;96802.41;269450;1274;22573;-87
2024/02/11 04:47:28;;;;;;;59.40;31.10;;;;;;;6.50;100.00;96791.41;271209;1277;22215;-87
2024/02/11 04:53:30;;;;;;;63.00;31.60;;;;;;;6.49;100.00;96787.06;271941;1275;22481;-87
2024/02/11 04:59:32;;;;;;;51.40;27.60;;;;;;;6.49;100.00;96777.98;271698;1274;23496;-86
2024/02/11 05:05:37;;;;;;;54.20;30.10;;;;;;;6.47;100.00;96774.27;271612;1274;22540;-87
2024/02/11 05:11:38;;;;;;;49.50;29.00;;;;;;;6.44;100.00;96767.00;271772;1275;22220;-87
2024/02/11 05:17:41;;;;;;;47.30;29.20;;;;;;;6.44;100.00;96765.45;272093;1274;22236;-88
2024/02/11 05:23:47;;;;;;;51.00;30.30;;;;;;;6.45;100.00;96761.63;272095;1275;22260;-87
2024/02/11 05:29:49;;;;;;;53.60;29.00;;;;;;;6.42;100.00;96754.27;271742;1274;23181;-87
2024/02/11 05:35:52;;;;;;;49.60;28.40;;;;;;;6.41;100.00;96749.16;271829;1275;22269;-87
2024/02/11 05:41:54;;;;;;;54.50;28.50;;;;;;;6.39;100.00;96749.95;271877;1274;22686;-87
2024/02/11 05:47:56;;;;;;;49.50;28.50;;;;;;;6.36;100.00;96749.90;271827;1275;22214;-87
2024/02/11 05:53:58;;;;;;;56.80;30.40;;;;;;;6.35;100.00;96752.86;271746;1274;22292;-86
2024/02/11 06:00:03;;;;;;;49.40;26.90;;;;;;;6.34;100.00;96752.71;271708;1274;22238;-86
2024/02/11 06:06:10;;;;;;;52.60;28.30;;;;;;;6.32;100.00;96753.73;271626;1274;22957;-87
2024/02/11 06:12:12;;;;;;;52.00;28.30;;;;;;;6.31;100.00;96752.20;271523;1275;23962;-87
2024/02/11 06:18:14;;;;;;;51.30;28.10;;;;;;;6.32;100.00;96753.19;270132;1275;22201;-87
2024/02/11 06:24:19;;;;;;;54.30;29.90;;;;;;;6.33;100.00;96760.48;271391;1275;22385;-87
2024/02/11 06:30:24;;;;;;;55.70;29.70;;;;;;;6.34;100.00;96768.24;271557;1267;22977;-87
2024/02/11 06:36:26;;;;;;;56.10;30.40;;;;;;;6.34;100.00;96767.15;270122;1275;23516;-87
2024/02/11 06:42:30;;;;;;;49.20;30.50;;;;;;;6.34;100.00;96771.11;271132;1274;23000;-87
2024/02/11 06:48:32;;;;;;;48.40;27.90;;;;;;;6.31;100.00;96772.77;271958;1275;22357;-87
2024/02/11 06:54:34;;;;;;;51.40;32.10;;;;;;;6.28;100.00;96774.73;271872;1275;23063;-88
2024/02/11 07:00:37;;;;;;;53.30;28.70;;;;;;;6.33;100.00;96778.72;271331;1267;22566;-87
2024/02/11 07:06:44;;;;;;;49.90;28.60;;;;;;;6.38;100.00;96778.06;269043;1275;22631;-87
2024/02/11 07:12:46;;;;;;;47.50;29.80;;;;;;;6.40;100.00;96772.08;269670;1274;22466;-89
2024/02/11 07:18:48;;;;;;;50.80;29.40;;;;;;;6.44;100.00;96768.78;271282;1275;23407;-87
2024/02/11 07:24:50;;;;;;;53.80;29.60;;;;;;;6.49;100.00;96767.48;271081;1275;23961;-87
2024/02/11 07:30:52;;;;;;;47.90;28.30;;;;;;;6.56;100.00;96770.77;271556;1275;22556;-87
2024/02/11 07:36:54;;;;;;;49.50;29.90;;;;;;;6.63;100.00;96774.66;270334;1275;22407;-88
2024/02/11 07:42:57;;;;;;;52.80;29.50;;;;;;;6.72;100.00;96770.25;270544;1274;22375;-87
2024/02/11 07:49:03;;;;;;;48.10;27.80;;;;;;;6.79;100.00;96773.21;271348;1274;22466;-89
2024/02/11 07:55:07;;;;;;;48.50;28.30;;;;;;;6.87;100.00;96778.95;271457;1275;227104;-88
2024/02/11 08:01:11;;;;;;;46.10;26.90;;;;;;;6.95;100.00;96774.23;271994;1275;22391;-87
2024/02/11 08:07:14;;;;;;;50.80;28.90;;;;;;;6.99;100.00;96776.89;272104;1275;22195;-87
2024/02/11 08:13:16;;;;;;;53.60;29.40;;;;;;;7.03;100.00;96776.38;270764;1275;22425;-87
2024/02/11 08:19:18;;;;;;;49.20;30.20;;;;;;;7.04;100.00;96769.83;271708;1274;22343;-86
2024/02/11 08:25:21;;;;;;;53.50;32.50;;;;;;;7.05;100.00;96760.51;271879;1274;23018;-86
2024/02/11 08:31:22;;;;;;;51.30;31.90;;;;;;;7.08;100.00;96755.13;271235;1274;22590;-87
2024/02/11 08:37:24;;;;;;;46.30;28.60;;;;;;;7.10;100.00;96758.91;271469;1274;23586;-88
2024/02/11 08:43:26;;;;;;;62.60;31.00;;;;;;;7.11;100.00;96756.09;270545;1274;22203;-87
2024/02/11 08:49:53;;;;;;;49.20;27.00;;;;;;;7.12;100.00;96759.27;272483;1276;22201;-87
2024/02/11 08:56:20;;;;;;;52.20;27.50;;;;;;;7.14;100.00;96758.54;272287;1277;22391;-88
2024/02/11 09:10:34;;;;;;;44.70;26.60;;;;;;;7.20;100.00;96763.99;272821;1277;22275;-87
2024/02/11 09:16:36;;;;;;;35.40;20.20;;;;;;;7.24;100.00;96759.83;272245;1274;22227;-87
2024/02/11 09:22:39;;;;;;;42.40;26.40;;;;;;;7.28;100.00;96757.45;272523;1274;23979;-87
2024/02/11 09:28:42;;;;;;;43.20;25.20;;;;;;;7.31;100.00;96754.14;271956;1275;22214;-87
2024/02/11 09:34:44;;;;;;;42.50;25.70;;;;;;;7.40;100.00;96750.08;271919;1274;22126;-87
2024/02/11 09:40:46;;;;;;;43.20;26.70;;;;;;;7.51;100.00;96752.66;271027;1275;25186;-87
2024/02/11 09:46:50;;;;;;;40.80;24.10;;;;;;;7.66;100.00;96752.38;271940;1274;22390;-88
2024/02/11 09:52:52;;;;;;;45.20;25.20;;;;;;;7.84;100.00;96757.58;271928;1274;22438;-87
2024/02/11 09:58:57;;;;;;;41.10;25.80;;;;;;;8.03;100.00;96751.16;271996;1274;22382;-88
2024/02/11 10:05:05;;;;;;;37.30;24.40;;;;;;;8.20;100.00;96750.70;272011;1274;22211;-88
2024/02/11 10:11:07;;;;;;;41.10;26.40;;;;;;;8.35;100.00;96749.30;271721;1274;22419;-87
2024/02/11 10:17:09;;;;;;;37.60;22.50;;;;;;;8.50;100.00;96749.21;271833;1274;23024;-87
2024/02/11 10:23:18;;;;;;;33.50;21.80;;;;;;;8.61;100.00;96750.59;271959;1274;22327;-87
2024/02/11 10:29:20;;;;;;;35.50;23.20;;;;;;;8.70;100.00;96745.83;272026;1274;22345;-88
2024/02/11 10:35:26;;;;;;;31.90;20.40;;;;;;;8.80;100.00;96741.38;271959;1274;22445;-88
2024/02/11 10:41:28;;;;;;;41.60;25.40;;;;;;;8.89;100.00;96733.10;271973;1274;23083;-87
2024/02/11 10:47:29;;;;;;;37.70;21.40;;;;;;;8.98;100.00;96719.44;272062;1274;22290;-87
2024/02/11 10:53:35;;;;;;;31.10;20.30;;;;;;;9.04;100.00;96705.06;271932;1275;23534;-88
2024/02/11 10:59:42;;;;;;;29.80;21.20;;;;;;;9.12;100.00;96698.02;271913;1274;22277;-88
2024/02/11 11:05:44;;;;;;;36.20;20.10;;;;;;;9.21;100.00;96699.11;271996;1274;22558;-88
2024/02/11 11:11:46;;;;;;;21.60;13.80;;;;;;;9.27;100.00;96704.99;270868;1274;22302;-88
2024/02/11 11:17:48;;;;;;;47.70;23.70;;;;;;;9.33;100.00;96702.14;272126;1265;22348;-88
2024/02/11 11:23:50;;;;;;;45.80;24.70;;;;;;;9.42;100.00;96699.55;270016;1274;23325;-89
2024/02/11 11:29:54;;;;;;;26.00;14.80;;;;;;;9.52;100.00;96694.73;269386;1274;24057;-88
2024/02/11 11:36:04;;;;;;;14.40;9.40;;;;;;;9.57;100.00;96694.21;269758;1274;22604;-87
2024/02/11 11:42:08;;;;;;;15.60;8.90;;;;;;;9.60;100.00;96693.76;272068;1273;22212;-89
2024/02/11 11:48:16;;;;;;;14.60;8.90;;;;;;;9.64;100.00;96690.73;271849;1269;22302;-88
2024/02/11 11:54:18;;;;;;;10.80;7.40;;;;;;;9.67;100.00;96685.25;271893;1274;22438;-88
2024/02/11 12:00:20;;;;;;;13.90;7.50;;;;;;;9.71;100.00;96687.05;271797;1271;22347;-89
2024/02/11 12:06:22;;;;;;;14.20;7.10;;;;;;;9.75;100.00;96682.84;272354;1274;22220;-88
2024/02/11 12:12:24;;;;;;;16.80;8.20;;;;;;;9.78;100.00;96677.08;271812;1274;22380;-88
2024/02/11 12:18:26;;;;;;;12.30;7.60;;;;;;;9.81;100.00;96675.27;271987;1274;22395;-89
2024/02/11 12:24:33;;;;;;;17.50;9.20;;;;;;;9.83;100.00;96671.56;271964;1274;22498;-89
2024/02/11 12:30:40;;;;;;;12.00;6.70;;;;;;;9.86;100.00;96667.20;271896;1274;22414;-89
2024/02/11 12:36:41;;;;;;;13.40;6.20;;;;;;;9.88;100.00;96660.96;271775;1274;22547;-88
2024/02/11 12:42:45;;;;;;;11.40;6.90;;;;;;;9.91;100.00;96658.96;270207;1274;23894;-88
2024/02/11 12:48:47;;;;;;;10.60;7.10;;;;;;;9.92;100.00;96656.52;271834;1275;22263;-90
2024/02/11 12:54:49;;;;;;;17.60;10.10;;;;;;;9.91;100.00;96654.52;271718;1274;23261;-89
2024/02/11 13:00:50;;;;;;;17.20;8.10;;;;;;;9.91;100.00;96653.34;271907;1274;22267;-89
2024/02/11 13:06:52;;;;;;;16.30;9.30;;;;;;;9.91;100.00;96654.90;272178;1276;22224;-89
2024/02/11 13:12:54;;;;;;;21.80;9.70;;;;;;;9.91;100.00;96658.27;271785;1274;22640;-89
2024/02/11 13:18:57;;;;;;;22.30;9.70;;;;;;;9.89;100.00;96658.38;271943;1274;22203;-89
2024/02/11 13:24:59;;;;;;;15.90;7.70;;;;;;;9.87;100.00;96656.48;271602;1264;23365;-89
2024/02/11 13:31:02;;;;;;;16.70;8.90;;;;;;;9.85;100.00;96659.64;271759;1274;22419;-89
2024/02/11 13:37:04;;;;;;;14.50;9.50;;;;;;;9.82;100.00;96658.94;271872;1274;23796;-89
2024/02/11 13:43:06;;;;;;;14.20;8.30;;;;;;;9.79;100.00;96661.82;272071;1268;22330;-89
2024/02/11 13:49:08;;;;;;;18.80;10.10;;;;;;;9.76;100.00;96661.73;271785;1274;22567;-89
2024/02/11 13:55:11;;;;;;;13.20;9.40;;;;;;;9.74;100.00;96662.33;272005;1274;23097;-88
2024/02/11 14:01:13;;;;;;;31.90;14.70;;;;;;;9.68;100.00;96664.95;272012;1274;22463;-89
2024/02/11 14:07:15;;;;;;;31.50;15.70;;;;;;;9.62;100.00;96673.05;271995;1274;24291;-88
2024/02/11 14:13:17;;;;;;;26.30;9.90;;;;;;;9.58;100.00;96674.14;271324;1274;22997;-89
2024/02/11 14:19:23;;;;;;;22.40;11.80;;;;;;;9.55;100.00;96674.68;271270;1274;23365;-88
2024/02/11 14:25:24;;;;;;;31.80;15.90;;;;;;;9.49;100.00;96673.31;271312;1274;22442;-87
2024/02/11 14:31:26;;;;;;;21.20;11.80;;;;;;;9.44;100.00;96674.90;271761;1274;24977;-88
2024/02/11 14:37:29;;;;;;;18.40;9.10;;;;;;;9.40;100.00;96680.01;271002;1274;23513;-88
2024/02/11 14:43:33;;;;;;;14.90;8.60;;;;;;;9.36;100.00;96678.52;271458;1274;22502;-88
2024/02/11 14:49:35;;;;;;;19.80;9.90;;;;;;;9.32;100.00;96684.29;269490;1274;23823;-88
2024/02/11 14:55:40;;;;;;;16.90;10.30;;;;;;;9.28;100.00;96687.10;269132;1274;22686;-89
2024/02/11 15:01:41;;;;;;;23.90;14.90;;;;;;;9.24;100.00;96691.48;269621;1274;22940;-89
2024/02/11 15:07:43;;;;;;;24.20;14.40;;;;;;;9.21;100.00;96694.81;269129;1274;23314;-88
2024/02/11 15:13:49;;;;;;;19.70;11.00;;;;;;;9.17;100.00;96695.75;270067;1274;22552;-87
2024/02/11 15:19:51;;;;;;;15.60;9.50;;;;;;;9.12;100.00;96702.56;270337;1274;23654;-87
2024/02/11 15:25:55;;;;;;;18.60;13.10;;;;;;;9.07;100.00;96706.41;269574;1274;22186;-88
2024/02/11 15:31:57;;;;;;;40.20;18.30;;;;;;;8.98;100.00;96706.50;271790;1275;22293;-88
2024/02/11 15:37:59;;;;;;;25.20;16.20;;;;;;;8.92;100.00;96709.04;270943;1274;22583;-87
2024/02/11 15:44:00;;;;;;;26.80;15.90;;;;;;;8.87;100.00;96712.40;268483;1274;22638;-88
2024/02/11 15:50:03;;;;;;;25.30;15.80;;;;;;;8.82;100.00;96716.08;271788;1274;22450;-88
2024/02/11 15:56:05;;;;;;;37.00;25.80;;;;;;;8.79;100.00;96723.15;271954;1275;22461;-87
2024/02/11 16:02:07;;;;;;;23.00;16.90;;;;;;;8.75;100.00;96728.06;271888;1275;22405;-88
2024/02/11 16:08:12;;;;;;;28.80;17.90;;;;;;;8.70;100.00;96729.94;271932;1274;22386;-89
2024/02/11 16:14:14;;;;;;;58.40;34.30;;;;;;;8.66;100.00;96738.96;271688;1274;22398;-88
2024/02/11 16:20:17;;;;;;;56.70;31.30;;;;;;;8.62;100.00;96748.48;271838;1275;22456;-89
2024/02/11 16:26:20;;;;;;;33.80;18.30;;;;;;;8.57;100.00;96752.27;271365;1274;22390;-88
2024/02/11 16:32:22;;;;;;;24.30;16.40;;;;;;;8.53;100.00;96758.52;270114;1275;23809;-88
2024/02/11 16:38:24;;;;;;;26.00;16.40;;;;;;;8.51;100.00;96762.52;271022;1267;22370;-87
2024/02/11 16:44:27;;;;;;;25.50;16.30;;;;;;;8.44;100.00;96768.33;271461;1274;22504;-88
2024/02/11 16:50:29;;;;;;;27.30;16.20;;;;;;;8.39;100.00;96773.15;270538;1274;22540;-89
2024/02/11 16:56:31;;;;;;;57.20;32.20;;;;;;;8.37;100.00;96776.30;268441;1274;22590;-88
2024/02/11 17:02:34;;;;;;;48.90;27.00;;;;;;;8.35;100.00;96780.94;269034;1274;22929;-87
2024/02/11 17:08:36;;;;;;;73.60;35.80;;;;;;;8.32;100.00;96785.96;262939;1274;10001910;-88
2024/02/11 17:14:42;;;;;;;56.90;31.60;;;;;;;8.28;100.00;96791.48;271685;1274;22246;-88
2024/02/11 17:20:47;;;;;;;55.10;31.80;;;;;;;8.26;100.00;96799.45;271043;1274;22631;-87
2024/02/11 17:26:49;;;;;;;63.90;35.70;;;;;;;8.23;100.00;96801.59;270470;1274;22225;-88
2024/02/11 17:32:57;;;;;;;51.10;31.30;;;;;;;8.18;100.00;96805.84;272071;1274;22256;-86
2024/02/11 17:39:05;;;;;;;51.90;33.60;;;;;;;8.11;100.00;96808.59;270501;1274;22638;-87
2024/02/11 17:45:11;;;;;;;37.30;28.40;;;;;;;8.08;100.00;96805.36;269875;1274;22483;-88
2024/02/11 17:51:17;;;;;;;35.60;25.80;;;;;;;8.04;100.00;96808.29;271792;1274;22806;-87
2024/02/11 17:57:22;;;;;;;42.70;24.10;;;;;;;8.01;100.00;96810.29;271627;1274;22408;-86
2024/02/11 18:03:26;;;;;;;35.40;23.50;;;;;;;7.94;100.00;96812.55;271907;1274;22275;-88
2024/02/11 18:09:29;;;;;;;55.60;26.00;;;;;;;7.91;100.00;96814.98;272040;1275;22432;-86
2024/02/11 18:15:35;;;;;;;42.70;28.50;;;;;;;7.87;100.00;96816.61;271583;1275;22202;-88
2024/02/11 18:21:37;;;;;;;51.90;34.30;;;;;;;7.83;100.00;96818.06;272098;1274;23506;-88
2024/02/11 18:27:39;;;;;;;54.80;36.50;;;;;;;7.79;100.00;96820.45;271766;1274;22522;-88
2024/02/11 18:33:42;;;;;;;56.50;38.70;;;;;;;7.78;100.00;96822.26;272031;1275;22872;-89
2024/02/11 18:39:45;;;;;;;70.20;44.10;;;;;;;7.74;100.00;96822.16;271954;1275;23070;-88
2024/02/11 18:46:15;;;;;;;68.90;46.30;;;;;;;7.70;100.00;96826.48;271804;1274;22683;-88
2024/02/11 18:52:42;;;;;;;75.90;41.00;;;;;;;7.65;100.00;96827.23;271661;1275;22874;-87
2024/02/11 18:58:44;;;;;;;63.40;41.20;;;;;;;7.58;100.00;96833.08;271739;1274;22215;-88
2024/02/11 19:04:47;;;;;;;60.20;41.20;;;;;;;7.52;100.00;96836.17;271951;1274;22552;-86
2024/02/11 19:10:50;;;;;;;70.30;45.30;;;;;;;7.46;100.00;96837.27;271644;1274;23074;-88
2024/02/11 19:16:53;;;;;;;70.50;49.10;;;;;;;7.41;100.00;96838.48;271814;1275;22210;-87
2024/02/11 19:22:59;;;;;;;;;;;;;;;7.40;100.00;96843.55;271976;1275;22468;-88
2024/02/11 19:29:01;;;;;;;66.30;46.00;;;;;;;7.39;100.00;96847.77;271606;1270;22743;-87
2024/02/11 19:35:04;;;;;;;68.30;46.30;;;;;;;7.35;100.00;96848.58;271586;1274;22317;-88
2024/02/11 19:41:06;;;;;;;70.00;40.90;;;;;;;7.27;100.00;96849.75;271907;1274;23286;-88
2024/02/11 19:47:14;;;;;;;73.10;49.80;;;;;;;7.17;100.00;96858.09;271847;1274;22894;-88
2024/02/11 19:53:26;;;;;;;71.40;47.20;;;;;;;7.14;100.00;96863.48;271513;1275;303588;-88
2024/02/11 19:59:29;;;;;;;71.70;47.30;;;;;;;7.14;100.00;96867.75;271660;1275;22816;-88
2024/02/11 20:05:34;;;;;;;69.10;44.70;;;;;;;7.14;100.00;96871.27;271957;1275;22302;-88
2024/02/11 20:11:42;;;;;;;99.60;56.20;;;;;;;7.08;100.00;96880.95;270820;1275;22228;-88
2024/02/11 20:17:48;;;;;;;72.80;47.50;;;;;;;7.01;100.00;96888.24;271626;1275;23186;-86
2024/02/11 20:23:51;;;;;;;71.10;45.90;;;;;;;6.97;100.00;96898.77;271831;1274;22272;-88
2024/02/11 20:29:53;;;;;;;69.10;44.30;;;;;;;6.97;100.00;96904.91;271698;1274;24247;-88
2024/02/11 20:35:55;;;;;;;79.00;51.20;;;;;;;6.96;100.00;96908.89;271672;1274;22484;-88
2024/02/11 20:41:57;;;;;;;89.60;52.30;;;;;;;6.95;100.00;96910.61;271795;1274;23347;-88
2024/02/11 20:47:59;;;;;;;84.30;53.90;;;;;;;6.98;100.00;96917.35;270314;1275;25267;-87
2024/02/11 20:54:01;;;;;;;85.70;53.90;;;;;;;6.99;100.00;96927.05;270889;1275;22546;-88
2024/02/11 21:00:11;;;;;;;88.00;56.00;;;;;;;7.00;100.00;96930.77;271006;1275;22306;-88
2024/02/11 21:06:14;;;;;;;89.80;56.80;;;;;;;7.05;100.00;96929.95;271830;1275;22275;-87
2024/02/11 21:12:16;;;;;;;83.00;53.60;;;;;;;7.04;100.00;96933.61;271258;1275;22582;-88
2024/02/11 21:18:21;;;;;;;77.60;49.00;;;;;;;7.00;100.00;96937.52;270258;1274;23823;-88
2024/02/11 21:24:23;;;;;;;77.80;48.60;;;;;;;6.90;100.00;96941.41;269328;1275;22551;-87
2024/02/11 21:30:27;;;;;;;69.00;45.70;;;;;;;6.90;100.00;96941.80;269456;1275;22377;-87
2024/02/11 21:36:30;;;;;;;84.60;52.30;;;;;;;6.91;100.00;96950.10;270300;1275;25184;-87
2024/02/11 21:42:32;;;;;;;77.90;48.80;;;;;;;6.94;100.00;96954.23;269283;1274;22462;-88
2024/02/11 21:48:36;;;;;;;78.50;49.40;;;;;;;6.96;100.00;96960.57;268888;1275;25297;-87
2024/02/11 21:54:38;;;;;;;81.80;50.80;;;;;;;6.95;100.00;96967.19;269674;1275;23871;-86
2024/02/11 22:00:40;;;;;;;87.80;52.60;;;;;;;6.92;100.00;96971.33;269608;1274;22628;-87
2024/02/11 22:06:42;;;;;;;86.10;50.60;;;;;;;6.95;100.00;96975.80;271974;1275;22334;-88
2024/02/11 22:12:47;;;;;;;88.10;50.60;;;;;;;6.93;100.00;96981.41;271975;1276;22318;-88
2024/02/11 22:18:50;;;;;;;98.80;56.50;;;;;;;6.97;100.00;96992.73;271917;1275;22400;-87
2024/02/11 22:24:52;;;;;;;85.40;52.10;;;;;;;7.00;100.00;96999.79;272026;1275;22245;-86
2024/02/11 22:30:55;;;;;;;89.40;52.30;;;;;;;7.01;100.00;97006.31;271984;1275;22474;-86
2024/02/11 22:36:57;;;;;;;93.90;56.40;;;;;;;7.00;100.00;97012.45;271965;1275;23756;-88
2024/02/11 22:42:59;;;;;;;102.70;58.90;;;;;;;7.01;100.00;97019.38;271867;1275;22524;-86
2024/02/11 22:49:02;;;;;;;91.30;53.20;;;;;;;7.01;100.00;97026.21;271992;1275;22984;-87
2024/02/11 22:55:07;;;;;;;91.50;50.00;;;;;;;7.02;100.00;97038.70;271993;1274;22452;-87
2024/02/11 23:01:09;;;;;;;80.80;47.50;;;;;;;7.04;100.00;97043.43;272017;1275;22331;-87
2024/02/11 23:07:12;;;;;;;79.20;45.80;;;;;;;7.10;100.00;97049.63;272059;1275;23901;-88
2024/02/11 23:13:18;;;;;;;78.20;46.20;;;;;;;7.13;100.00;97051.78;271992;1274;23631;-87
2024/02/11 23:19:25;;;;;;;76.40;49.20;;;;;;;7.14;100.00;97056.98;271947;1270;22486;-86
2024/02/11 23:25:27;;;;;;;75.80;49.00;;;;;;;7.12;100.00;97057.07;271953;1275;22117;-86
2024/02/11 23:31:29;;;;;;;75.50;46.10;;;;;;;7.10;100.00;97057.25;272017;1275;22421;-87
2024/02/11 23:37:31;;;;;;;74.30;45.70;;;;;;;7.09;100.00;97063.16;269455;1275;22573;-87
2024/02/11 23:43:34;;;;;;;78.80;46.20;;;;;;;7.06;100.00;97067.91;269924;1275;22775;-86
2024/02/11 23:49:36;;;;;;;83.00;49.70;;;;;;;7.05;100.00;97072.73;270218;1274;22224;-85
2024/02/11 23:55:38;;;;;;;90.90;51.10;;;;;;;7.01;100.00;97080.68;271952;1275;22507;-86
